Rye, United Kingdom
Current Conditions -  °F | °C
As of 4:50 PM on Tuesday 27 Jan 2015 (Local Time) from EGMD Reporting Station
Broken Clouds Broken Clouds  
Wind Chill: 43°   Ceiling: 2800
Heat Index: 46°   Visibility: 6mi
Dew Point: 41°   Wind: 7mph
Humidity: 81%   Direction: 270°W
Pressure: 30.3"   Gusts: NA
Location:  50.95°N, 0.73°E
Report Text: EGMD 271650Z 27006KT 9999 BKN028 08/05 Q1026
Loading
Personal Weather Stations






























Interactive Weather Map New forecast layout! Learn more

10-Day Weather Forecast

Advertisements
Track Severe Weather on mobile